createdAt,value
2023-04-26T00:00:38.567Z,4.46
2023-04-26T00:03:10.827Z,4.42
2023-04-26T00:05:41.070Z,4.33
2023-04-26T00:08:11.938Z,4.25
2023-04-26T00:10:42.901Z,4.35
2023-04-26T00:13:12.887Z,4.34
2023-04-26T00:15:46.038Z,4.33
2023-04-26T00:18:16.311Z,4.32
2023-04-26T00:20:48.787Z,4.27
2023-04-26T00:23:18.993Z,4.25
2023-04-26T00:25:49.127Z,4.24
2023-04-26T00:28:19.506Z,4.16
2023-04-26T00:30:54.042Z,4.25
2023-04-26T00:33:25.211Z,4.20
2023-04-26T00:35:56.763Z,4.18
2023-04-26T00:38:26.963Z,4.21
2023-04-26T00:40:56.989Z,4.19
2023-04-26T00:43:27.034Z,4.20
2023-04-26T00:45:59.977Z,4.20
2023-04-26T00:48:30.755Z,4.01
2023-04-26T00:51:01.630Z,4.19
2023-04-26T00:53:32.647Z,4.18
2023-04-26T00:56:03.625Z,4.18
2023-04-26T00:58:34.935Z,4.16
2023-04-26T01:01:08.217Z,4.14
2023-04-26T01:03:40.833Z,4.10
2023-04-26T01:06:15.362Z,4.05
2023-04-26T01:08:47.412Z,4.01
2023-04-26T01:11:18.377Z,4.04
2023-04-26T01:13:52.165Z,4.03
2023-04-26T01:16:31.296Z,3.88
2023-04-26T01:19:02.379Z,3.93
2023-04-26T01:21:33.507Z,4.00
2023-04-26T01:24:09.464Z,3.99
2023-04-26T01:26:46.113Z,3.95
2023-04-26T01:29:22.054Z,3.84
2023-04-26T01:31:52.867Z,3.94
2023-04-26T01:34:27.222Z,3.96
2023-04-26T01:37:08.385Z,3.95
2023-04-26T01:39:43.124Z,3.92
2023-04-26T01:42:14.630Z,3.88
2023-04-26T01:44:48.268Z,3.88
2023-04-26T01:47:18.500Z,3.85
2023-04-26T01:49:49.046Z,3.78
2023-04-26T01:52:20.812Z,3.80
2023-04-26T01:54:53.542Z,3.80
2023-04-26T01:57:26.506Z,3.79
2023-04-26T01:59:57.157Z,3.76
2023-04-26T02:02:29.445Z,3.74
2023-04-26T02:05:00.099Z,3.71
2023-04-26T02:07:30.403Z,3.70
2023-04-26T02:10:03.680Z,3.65
2023-04-26T02:12:37.603Z,3.62
2023-04-26T02:15:08.870Z,3.60
2023-04-26T02:17:40.136Z,3.58
2023-04-26T02:20:15.753Z,3.58
2023-04-26T02:22:53.046Z,3.53
2023-04-26T02:25:25.752Z,3.50
2023-04-26T02:27:57.307Z,3.46
2023-04-26T02:30:30.652Z,3.44
2023-04-26T02:33:01.380Z,3.41
2023-04-26T02:35:32.745Z,3.38
2023-04-26T02:38:02.852Z,3.38
2023-04-26T02:40:36.011Z,3.37
2023-04-26T02:43:06.690Z,3.38
2023-04-26T02:45:37.753Z,3.32
2023-04-26T02:48:09.158Z,3.34
2023-04-26T02:50:39.569Z,3.34
2023-04-26T02:53:09.615Z,3.35
2023-04-26T02:55:44.925Z,3.34
2023-04-26T02:58:14.994Z,3.33
2023-04-26T03:00:50.074Z,3.34
2023-04-26T03:03:20.598Z,3.35
2023-04-26T03:06:09.025Z,3.34
2023-04-26T03:08:39.248Z,3.33
2023-04-26T03:11:14.016Z,3.39
2023-04-26T03:13:44.314Z,3.38
2023-04-26T03:16:16.518Z,3.34
2023-04-26T03:18:47.630Z,3.34
2023-04-26T03:21:18.424Z,3.30
2023-04-26T03:23:52.019Z,3.32
2023-04-26T03:26:24.680Z,3.30
2023-04-26T03:28:56.025Z,3.30
2023-04-26T03:31:27.714Z,3.31
2023-04-26T03:33:58.561Z,3.27
2023-04-26T03:36:28.731Z,3.29
2023-04-26T03:38:59.525Z,3.28
2023-04-26T03:41:33.432Z,3.25
2023-04-26T03:44:08.362Z,3.13
2023-04-26T03:46:38.656Z,3.03
2023-04-26T03:49:09.533Z,3.13
2023-04-26T03:51:39.793Z,3.15
2023-04-26T03:54:11.350Z,3.14
2023-04-26T03:56:44.016Z,3.14
2023-04-26T03:59:15.529Z,3.15
2023-04-26T04:01:46.348Z,3.16
2023-04-26T04:04:16.841Z,3.13
2023-04-26T04:06:48.077Z,3.16
2023-04-26T04:09:21.548Z,3.23
2023-04-26T04:11:55.417Z,3.24
2023-04-26T04:14:28.991Z,3.24
2023-04-26T04:17:03.462Z,3.27
2023-04-26T04:19:33.997Z,3.30
2023-04-26T04:22:06.305Z,3.34
2023-04-26T04:24:40.053Z,3.36
2023-04-26T04:27:12.702Z,3.51
2023-04-26T04:29:44.306Z,3.57
2023-04-26T04:32:17.479Z,3.68
2023-04-26T04:34:49.493Z,3.77
2023-04-26T04:37:23.041Z,3.83
2023-04-26T04:39:53.535Z,3.91
2023-04-26T04:42:27.454Z,3.94
2023-04-26T04:45:00.093Z,3.95
2023-04-26T04:47:34.340Z,3.97
2023-04-26T04:50:07.241Z,3.98
2023-04-26T04:52:39.886Z,4.05
2023-04-26T04:55:10.476Z,4.09
2023-04-26T04:57:44.880Z,4.12
2023-04-26T05:00:17.028Z,4.08
2023-04-26T05:02:51.585Z,4.04
2023-04-26T05:05:21.996Z,4.11
2023-04-26T05:07:54.546Z,4.07
2023-04-26T05:10:24.654Z,4.23
2023-04-26T05:13:06.959Z,4.29
2023-04-26T05:15:41.388Z,4.30
2023-04-26T05:18:11.635Z,4.27
2023-04-26T05:20:42.186Z,4.23
2023-04-26T05:23:13.072Z,4.58
2023-04-26T05:25:43.271Z,4.89
2023-04-26T05:28:51.264Z,5.67
2023-04-26T05:31:36.133Z,6.63
2023-04-26T05:34:09.270Z,7.68
2023-04-26T05:36:43.876Z,8.31
2023-04-26T05:39:15.294Z,9.24
2023-04-26T05:41:46.591Z,9.82
2023-04-26T05:44:19.559Z,10.11
2023-04-26T05:46:53.018Z,10.32
2023-04-26T05:49:23.716Z,10.47
2023-04-26T05:51:56.324Z,10.48
2023-04-26T05:54:26.504Z,10.23
2023-04-26T05:56:58.450Z,10.33
2023-04-26T05:59:33.570Z,10.56
2023-04-26T06:02:05.034Z,10.57
2023-04-26T06:04:35.311Z,10.58
2023-04-26T06:07:14.588Z,10.29
2023-04-26T06:09:44.604Z,9.69
2023-04-26T06:12:14.880Z,9.17
2023-04-26T06:14:50.407Z,8.59
2023-04-26T06:17:26.936Z,8.41
2023-04-26T06:19:57.328Z,8.49
2023-04-26T06:22:28.795Z,8.42
2023-04-26T06:24:59.038Z,8.30
2023-04-26T06:27:31.095Z,8.32
2023-04-26T06:30:05.159Z,8.49
2023-04-26T06:32:38.241Z,8.21
2023-04-26T06:35:09.626Z,8.02
2023-04-26T06:37:40.895Z,8.23
2023-04-26T06:40:22.459Z,8.19
2023-04-26T06:42:55.834Z,8.00
2023-04-26T06:45:51.258Z,7.82
2023-04-26T06:48:23.260Z,7.72
2023-04-26T06:50:57.296Z,7.66
2023-04-26T06:53:27.691Z,7.81
2023-04-26T06:56:01.394Z,8.13
2023-04-26T06:58:31.805Z,8.44
2023-04-26T07:01:06.560Z,8.67
2023-04-26T07:03:37.423Z,8.56
2023-04-26T07:06:08.119Z,8.51
2023-04-26T07:08:39.246Z,8.33
2023-04-26T07:11:16.163Z,8.22
2023-04-26T07:13:46.691Z,8.12
2023-04-26T07:16:20.010Z,8.14
2023-04-26T07:18:51.969Z,7.94
2023-04-26T07:21:22.970Z,7.66
2023-04-26T07:23:56.925Z,7.65
2023-04-26T07:26:28.544Z,7.64
2023-04-26T07:29:01.264Z,7.69
2023-04-26T07:31:36.197Z,8.00
2023-04-26T07:34:08.663Z,8.21
2023-04-26T07:36:42.814Z,8.48
2023-04-26T07:39:15.837Z,8.53
2023-04-26T07:41:45.915Z,8.49
2023-04-26T07:44:16.036Z,8.55
2023-04-26T07:46:50.921Z,8.64
2023-04-26T07:49:21.757Z,8.64
2023-04-26T07:51:53.976Z,8.68
2023-04-26T07:54:24.200Z,8.70
2023-04-26T07:56:54.796Z,8.77
2023-04-26T07:59:26.866Z,8.70
2023-04-26T08:01:59.772Z,8.67
2023-04-26T08:04:37.089Z,8.78
2023-04-26T08:07:11.093Z,8.89
2023-04-26T08:09:41.292Z,8.75
2023-04-26T08:12:13.925Z,8.78
2023-04-26T08:14:44.153Z,9.09
2023-04-26T08:17:17.338Z,9.23
2023-04-26T08:20:00.324Z,9.15
2023-04-26T08:22:30.571Z,9.22
2023-04-26T08:25:00.645Z,9.35
2023-04-26T08:27:32.089Z,9.41
2023-04-26T08:30:04.427Z,9.67
2023-04-26T08:32:37.658Z,9.88
2023-04-26T08:35:09.438Z,9.76
2023-04-26T08:37:45.531Z,9.69
2023-04-26T08:40:15.770Z,9.67
2023-04-26T08:42:49.109Z,9.55
2023-04-26T08:45:21.081Z,9.19
2023-04-26T08:48:01.520Z,9.09
2023-04-26T08:50:36.633Z,9.27
2023-04-26T08:53:11.076Z,9.34
2023-04-26T08:55:42.986Z,9.50
2023-04-26T08:58:14.869Z,9.91
2023-04-26T09:00:46.647Z,10.07
2023-04-26T09:03:21.298Z,9.94
2023-04-26T09:05:51.692Z,10.03
2023-04-26T09:08:24.957Z,10.07
2023-04-26T09:10:56.160Z,9.95
2023-04-26T09:13:31.982Z,9.75
2023-04-26T09:16:04.632Z,9.47
2023-04-26T09:18:37.856Z,9.47
2023-04-26T09:21:10.943Z,9.62
2023-04-26T09:24:00.091Z,9.85
2023-04-26T09:26:32.702Z,10.13
2023-04-26T09:29:19.177Z,10.37
2023-04-26T09:31:50.998Z,10.53
2023-04-26T09:34:23.847Z,10.63
2023-04-26T09:36:57.302Z,10.60
2023-04-26T09:39:43.733Z,10.86
2023-04-26T09:42:16.160Z,11.24
2023-04-26T09:44:46.446Z,11.40
2023-04-26T09:47:16.980Z,11.10
2023-04-26T09:49:51.996Z,10.63
2023-04-26T09:52:26.170Z,10.38
2023-04-26T09:54:58.295Z,10.30
2023-04-26T09:57:28.430Z,10.33
2023-04-26T10:00:06.178Z,10.44
2023-04-26T10:02:37.005Z,10.39
2023-04-26T10:05:11.482Z,10.34
2023-04-26T10:07:42.484Z,10.45
2023-04-26T10:10:15.198Z,10.52
2023-04-26T10:12:45.481Z,10.49
2023-04-26T10:15:16.059Z,10.83
2023-04-26T10:17:46.455Z,11.14
2023-04-26T10:20:23.997Z,11.34
2023-04-26T10:23:01.302Z,11.68
2023-04-26T10:25:43.100Z,11.73
2023-04-26T10:28:13.149Z,11.81
2023-04-26T10:31:00.649Z,11.77
2023-04-26T10:33:31.028Z,11.58
2023-04-26T10:36:11.718Z,11.55
2023-04-26T10:38:43.551Z,11.45
2023-04-26T10:41:33.112Z,11.34
2023-04-26T10:44:46.082Z,11.43
2023-04-26T10:47:32.650Z,11.45
2023-04-26T10:50:11.402Z,11.32
2023-04-26T10:53:10.314Z,11.35
2023-04-26T10:55:44.530Z,11.60
2023-04-26T10:58:29.583Z,11.61
2023-04-26T11:01:34.118Z,11.71
2023-04-26T11:04:10.610Z,12.09
2023-04-26T11:06:53.961Z,12.35
2023-04-26T11:09:44.011Z,12.18
2023-04-26T11:12:16.625Z,11.88
2023-04-26T11:14:48.651Z,11.82
2023-04-26T11:17:20.146Z,11.97
2023-04-26T11:19:52.050Z,12.14
2023-04-26T11:22:25.334Z,12.19
2023-04-26T11:24:58.434Z,12.00
2023-04-26T11:27:32.844Z,11.67
2023-04-26T11:30:06.745Z,11.92
2023-04-26T11:32:36.994Z,12.10
2023-04-26T11:35:07.411Z,12.31
2023-04-26T11:37:40.457Z,12.50
2023-04-26T11:40:19.468Z,12.79
2023-04-26T11:42:57.709Z,12.70
2023-04-26T11:45:28.173Z,12.36
2023-04-26T11:47:58.966Z,12.77
2023-04-26T11:50:30.965Z,13.07
2023-04-26T11:53:04.422Z,13.34
2023-04-26T11:55:39.732Z,13.00
2023-04-26T11:58:17.592Z,12.67
2023-04-26T12:01:03.132Z,12.48
2023-04-26T12:03:35.618Z,12.39
2023-04-26T12:06:08.492Z,12.41
2023-04-26T12:08:38.606Z,12.39
2023-04-26T12:11:11.601Z,12.55
2023-04-26T12:13:43.592Z,12.42
2023-04-26T12:16:25.663Z,12.21
2023-04-26T12:18:57.376Z,11.91
2023-04-26T12:21:29.873Z,11.95
2023-04-26T12:24:01.981Z,11.92
2023-04-26T12:26:49.813Z,11.82
2023-04-26T12:29:19.814Z,11.75
2023-04-26T12:31:52.542Z,11.65
2023-04-26T12:34:22.776Z,11.47
2023-04-26T12:36:55.095Z,11.30
2023-04-26T12:39:25.058Z,11.20
2023-04-26T12:41:58.218Z,11.04
2023-04-26T12:44:28.445Z,11.02
2023-04-26T12:46:58.929Z,11.06
2023-04-26T12:49:30.898Z,11.02
2023-04-26T12:52:03.782Z,11.17
2023-04-26T12:54:33.914Z,11.32
2023-04-26T12:57:17.880Z,11.56
2023-04-26T12:59:47.987Z,11.83
2023-04-26T13:02:19.948Z,11.99
2023-04-26T13:04:50.120Z,12.02
2023-04-26T13:07:21.423Z,11.89
2023-04-26T13:09:51.423Z,11.94
2023-04-26T13:12:24.490Z,11.97
2023-04-26T13:14:57.606Z,11.82
2023-04-26T13:17:28.811Z,11.70
2023-04-26T13:19:58.894Z,11.51
2023-04-26T13:22:29.002Z,11.32
2023-04-26T13:24:59.123Z,11.12
2023-04-26T13:27:32.068Z,11.04
2023-04-26T13:30:02.264Z,11.02
2023-04-26T13:32:37.043Z,10.96
2023-04-26T13:35:07.809Z,11.03
2023-04-26T13:37:37.946Z,10.92
2023-04-26T13:40:11.698Z,10.87
2023-04-26T13:42:46.603Z,11.05
2023-04-26T13:45:19.514Z,11.14
2023-04-26T13:47:49.924Z,11.22
2023-04-26T13:50:20.499Z,11.38
2023-04-26T13:52:52.498Z,11.34
2023-04-26T13:55:23.006Z,11.43
2023-04-26T13:57:58.297Z,11.63
2023-04-26T14:00:33.055Z,11.76
2023-04-26T14:03:15.477Z,11.84
2023-04-26T14:05:46.182Z,11.91
2023-04-26T14:08:16.423Z,11.90
2023-04-26T14:10:48.969Z,11.74
2023-04-26T14:13:21.937Z,11.54
2023-04-26T14:15:55.078Z,11.41
2023-04-26T14:18:25.444Z,11.38
2023-04-26T14:20:55.732Z,11.43
2023-04-26T14:23:26.160Z,11.42
2023-04-26T14:25:59.218Z,11.43
2023-04-26T14:28:32.274Z,11.42
2023-04-26T14:31:02.433Z,11.50
2023-04-26T14:33:32.666Z,11.50
2023-04-26T14:36:05.352Z,11.41
2023-04-26T14:38:35.513Z,11.37
2023-04-26T14:41:08.774Z,11.49
2023-04-26T14:43:41.513Z,11.49
2023-04-26T14:46:12.089Z,11.47
2023-04-26T14:48:43.899Z,11.49
2023-04-26T14:51:14.300Z,11.31
2023-04-26T14:53:44.974Z,11.37
2023-04-26T14:56:15.225Z,11.29
2023-04-26T14:58:48.025Z,11.08
2023-04-26T15:01:18.101Z,11.16
2023-04-26T15:03:48.500Z,11.05
2023-04-26T15:06:21.935Z,11.00
2023-04-26T15:08:52.024Z,10.95
2023-04-26T15:11:26.788Z,10.84
2023-04-26T15:13:59.538Z,10.91
2023-04-26T15:16:29.783Z,10.96
2023-04-26T15:18:59.882Z,10.95
2023-04-26T15:21:30.338Z,10.98
2023-04-26T15:24:04.045Z,10.88
2023-04-26T15:26:35.533Z,10.85
2023-04-26T15:29:08.659Z,10.75
2023-04-26T15:31:39.080Z,10.76
2023-04-26T15:34:10.189Z,10.68
2023-04-26T15:36:42.125Z,10.67
2023-04-26T15:39:12.532Z,10.71
2023-04-26T15:41:42.587Z,10.74
2023-04-26T15:44:15.377Z,10.66
2023-04-26T15:46:46.034Z,10.60
2023-04-26T15:49:17.081Z,10.63
2023-04-26T15:51:47.333Z,10.68
2023-04-26T15:54:17.402Z,10.59
2023-04-26T15:56:47.929Z,10.74
2023-04-26T15:59:20.710Z,10.75
2023-04-26T16:01:51.025Z,10.86
2023-04-26T16:04:22.092Z,10.94
2023-04-26T16:06:52.321Z,10.94
2023-04-26T16:09:25.764Z,11.02
2023-04-26T16:11:56.966Z,10.97
2023-04-26T16:14:29.580Z,10.74
2023-04-26T16:17:03.690Z,10.63
2023-04-26T16:19:33.770Z,10.57
2023-04-26T16:22:07.012Z,10.59
2023-04-26T16:24:37.095Z,10.60
2023-04-26T16:27:07.556Z,10.62
2023-04-26T16:29:40.443Z,10.55
2023-04-26T16:32:10.750Z,10.37
2023-04-26T16:34:40.869Z,10.25
2023-04-26T16:37:13.131Z,10.27
2023-04-26T16:39:43.245Z,10.21
2023-04-26T16:42:13.429Z,10.17
2023-04-26T16:44:46.208Z,10.12
2023-04-26T16:47:16.291Z,10.08
2023-04-26T16:49:46.630Z,10.07
2023-04-26T16:52:16.727Z,10.05
2023-04-26T16:54:46.754Z,9.97
2023-04-26T16:57:17.442Z,9.89
2023-04-26T16:59:50.102Z,9.86
2023-04-26T17:02:20.836Z,9.81
2023-04-26T17:04:51.217Z,9.86
2023-04-26T17:07:23.245Z,9.89
2023-04-26T17:09:55.576Z,9.84
2023-04-26T17:12:26.959Z,9.80
2023-04-26T17:15:01.168Z,9.82
2023-04-26T17:17:32.802Z,9.80
2023-04-26T17:20:05.006Z,9.72
2023-04-26T17:22:35.033Z,9.66
2023-04-26T17:25:05.017Z,9.57
2023-04-26T17:27:35.108Z,9.49
2023-04-26T17:30:09.315Z,9.42
2023-04-26T17:32:39.600Z,9.42
2023-04-26T17:35:10.454Z,9.45
2023-04-26T17:37:42.038Z,9.39
2023-04-26T17:40:14.808Z,9.32
2023-04-26T17:42:48.696Z,9.30
2023-04-26T17:45:21.315Z,9.31
2023-04-26T17:47:51.403Z,9.33
2023-04-26T17:50:24.172Z,9.33
2023-04-26T17:53:00.856Z,9.30
2023-04-26T17:55:31.153Z,9.25
2023-04-26T17:58:01.329Z,9.26
2023-04-26T18:00:33.973Z,9.28
2023-04-26T18:03:05.314Z,9.28
2023-04-26T18:05:35.502Z,9.28
2023-04-26T18:08:05.820Z,9.21
2023-04-26T18:10:36.227Z,9.12
2023-04-26T18:13:06.379Z,9.21
2023-04-26T18:15:41.156Z,9.05
2023-04-26T18:18:11.475Z,9.19
2023-04-26T18:20:41.729Z,9.17
2023-04-26T18:23:12.438Z,9.10
2023-04-26T18:25:42.977Z,9.12
2023-04-26T18:28:20.475Z,9.10
2023-04-26T18:30:53.226Z,9.00
2023-04-26T18:33:23.441Z,8.91
2023-04-26T18:35:55.719Z,8.88
2023-04-26T18:38:26.758Z,8.88
2023-04-26T18:40:58.569Z,8.82
2023-04-26T18:43:28.642Z,8.79
2023-04-26T18:46:01.850Z,8.77
2023-04-26T18:48:32.225Z,8.58
2023-04-26T18:51:02.325Z,8.64
2023-04-26T18:53:32.639Z,8.59
2023-04-26T18:56:02.931Z,8.51
2023-04-26T18:58:33.008Z,8.48
2023-04-26T19:01:06.418Z,8.42
2023-04-26T19:03:39.102Z,8.39
2023-04-26T19:06:15.283Z,8.35
2023-04-26T19:08:45.827Z,8.33
2023-04-26T19:11:16.539Z,8.32
2023-04-26T19:13:46.634Z,8.35
2023-04-26T19:16:19.904Z,8.37
2023-04-26T19:18:50.377Z,8.42
2023-04-26T19:21:22.446Z,8.44
2023-04-26T19:23:58.850Z,8.49
2023-04-26T19:26:28.943Z,8.50
2023-04-26T19:28:59.266Z,8.49
2023-04-26T19:31:32.546Z,8.49
2023-04-26T19:34:04.051Z,8.49
2023-04-26T19:36:34.950Z,8.53
2023-04-26T19:39:05.357Z,8.51
2023-04-26T19:41:35.334Z,8.51
2023-04-26T19:44:06.089Z,8.55
2023-04-26T19:46:38.790Z,8.55
2023-04-26T19:49:09.504Z,8.48
2023-04-26T19:51:39.527Z,8.58
2023-04-26T19:54:09.732Z,8.56
2023-04-26T19:56:43.268Z,8.58
2023-04-26T19:59:15.236Z,8.59
2023-04-26T20:01:51.651Z,8.60
2023-04-26T20:04:23.806Z,8.60
2023-04-26T20:06:54.101Z,8.57
2023-04-26T20:09:24.135Z,8.61
2023-04-26T20:11:55.172Z,8.61
2023-04-26T20:14:26.262Z,8.64
2023-04-26T20:17:02.545Z,8.68
2023-04-26T20:19:33.151Z,8.67
2023-04-26T20:22:03.484Z,8.68
2023-04-26T20:24:34.399Z,8.62
2023-04-26T20:27:08.065Z,8.58
2023-04-26T20:29:38.277Z,8.57
2023-04-26T20:32:12.954Z,8.55
2023-04-26T20:34:43.642Z,8.51
2023-04-26T20:37:13.937Z,8.45
2023-04-26T20:39:44.350Z,8.35
2023-04-26T20:42:22.196Z,8.36
2023-04-26T20:44:52.473Z,8.28
2023-04-26T20:47:26.211Z,8.28
2023-04-26T20:49:57.340Z,8.32
2023-04-26T20:52:27.982Z,8.28
2023-04-26T20:54:58.275Z,8.29
2023-04-26T20:57:29.395Z,8.29
2023-04-26T21:00:00.294Z,8.30
2023-04-26T21:02:34.034Z,8.27
2023-04-26T21:05:04.660Z,8.28
2023-04-26T21:07:35.951Z,8.26
2023-04-26T21:10:06.450Z,8.27
2023-04-26T21:12:37.425Z,8.22
2023-04-26T21:15:08.792Z,8.19
2023-04-26T21:17:46.067Z,8.19
2023-04-26T21:20:16.608Z,8.02
2023-04-26T21:22:50.323Z,8.12
2023-04-26T21:25:20.848Z,8.12
2023-04-26T21:27:51.445Z,8.19
2023-04-26T21:30:21.977Z,8.18
2023-04-26T21:32:54.799Z,8.18
2023-04-26T21:35:25.157Z,8.18
2023-04-26T21:37:55.580Z,8.16
2023-04-26T21:40:25.684Z,8.15
2023-04-26T21:43:04.860Z,8.13
2023-04-26T21:45:35.419Z,8.08
2023-04-26T21:48:08.733Z,8.05
2023-04-26T21:50:39.157Z,7.92
2023-04-26T21:53:09.325Z,7.96
2023-04-26T21:55:40.145Z,7.96
2023-04-26T21:58:11.175Z,7.97
2023-04-26T22:00:41.357Z,7.96
2023-04-26T22:03:17.297Z,7.97
2023-04-26T22:05:49.889Z,7.90
2023-04-26T22:08:19.973Z,7.90
2023-04-26T22:10:50.146Z,7.84
2023-04-26T22:13:20.437Z,7.74
2023-04-26T22:15:50.902Z,7.77
2023-04-26T22:18:23.834Z,7.69
2023-04-26T22:20:53.900Z,7.70
2023-04-26T22:23:24.188Z,7.70
2023-04-26T22:25:54.492Z,7.72
2023-04-26T22:28:26.591Z,7.72
2023-04-26T22:30:59.283Z,7.68
2023-04-26T22:33:31.941Z,7.72
2023-04-26T22:36:03.088Z,7.70
2023-04-26T22:38:33.244Z,7.72
2023-04-26T22:41:04.684Z,7.61
2023-04-26T22:43:35.194Z,7.76
2023-04-26T22:46:05.355Z,7.72
2023-04-26T22:48:38.185Z,7.67
2023-04-26T22:51:08.786Z,7.62
2023-04-26T22:53:39.302Z,7.55
2023-04-26T22:56:10.975Z,7.58
2023-04-26T22:58:43.122Z,7.64
2023-04-26T23:01:14.244Z,7.57
2023-04-26T23:04:03.764Z,7.65
2023-04-26T23:06:35.513Z,7.60
2023-04-26T23:09:07.408Z,7.55
2023-04-26T23:11:37.550Z,7.56
2023-04-26T23:14:07.564Z,7.54
2023-04-26T23:16:39.062Z,7.56
2023-04-26T23:19:11.916Z,7.56
2023-04-26T23:21:45.190Z,7.55
2023-04-26T23:24:24.250Z,7.56
2023-04-26T23:26:54.395Z,7.61
2023-04-26T23:29:24.428Z,7.60
2023-04-26T23:31:54.650Z,7.58
2023-04-26T23:34:27.453Z,7.48
2023-04-26T23:36:58.980Z,7.43
2023-04-26T23:39:38.607Z,7.48
2023-04-26T23:42:08.927Z,7.49
2023-04-26T23:44:40.925Z,7.49
2023-04-26T23:47:10.926Z,7.51
2023-04-26T23:49:44.058Z,7.53
2023-04-26T23:52:14.178Z,7.48
2023-04-26T23:54:44.386Z,7.51
2023-04-26T23:57:16.639Z,7.53
2023-04-26T23:59:52.894Z,7.50
